createdAt,value
2022-08-14T00:02:17.558Z,18.18
2022-08-14T00:04:45.662Z,18.17
2022-08-14T00:07:14.783Z,17.93
2022-08-14T00:09:56.027Z,17.98
2022-08-14T00:12:33.792Z,18.02
2022-08-14T00:15:11.995Z,18.00
2022-08-14T00:17:48.299Z,17.91
2022-08-14T00:21:00.799Z,17.90
2022-08-14T00:23:29.359Z,17.87
2022-08-14T00:26:05.856Z,17.88
2022-08-14T00:28:36.091Z,17.89
2022-08-14T00:31:07.898Z,17.90
2022-08-14T00:33:39.371Z,17.89
2022-08-14T00:36:36.194Z,17.87
2022-08-14T00:39:09.552Z,17.71
2022-08-14T00:41:39.194Z,17.71
2022-08-14T00:44:08.194Z,17.71
2022-08-14T00:46:37.484Z,17.69
2022-08-14T00:49:08.168Z,17.63
2022-08-14T00:51:41.141Z,17.52
2022-08-14T00:54:16.908Z,17.48
2022-08-14T00:56:51.642Z,17.43
2022-08-14T00:59:24.937Z,17.46
2022-08-14T01:01:55.676Z,17.47
2022-08-14T01:04:38.360Z,17.39
2022-08-14T01:07:21.295Z,17.33
2022-08-14T01:09:51.471Z,17.36
2022-08-14T01:12:27.218Z,17.37
2022-08-14T01:14:59.149Z,17.37
2022-08-14T01:17:50.652Z,17.36
2022-08-14T01:20:40.858Z,17.36
2022-08-14T01:23:15.593Z,17.34
2022-08-14T01:25:45.958Z,17.19
2022-08-14T01:28:47.399Z,17.06
2022-08-14T01:31:05.932Z,16.99
2022-08-14T01:33:39.607Z,17.01
2022-08-14T01:36:23.819Z,16.99
2022-08-14T01:38:58.109Z,17.02
2022-08-14T01:41:30.133Z,16.99
2022-08-14T01:44:02.293Z,16.97
2022-08-14T01:46:33.486Z,16.94
2022-08-14T01:49:07.749Z,16.92
2022-08-14T01:51:37.387Z,16.92
2022-08-14T01:54:09.593Z,16.87
2022-08-14T01:56:39.752Z,16.74
2022-08-14T01:59:10.215Z,16.68
2022-08-14T02:01:55.891Z,16.70
2022-08-14T02:04:55.872Z,16.70
2022-08-14T02:07:34.056Z,16.69
2022-08-14T02:10:13.122Z,16.67
2022-08-14T02:12:44.257Z,16.65
2022-08-14T02:15:13.010Z,16.65
2022-08-14T02:17:43.546Z,16.64
2022-08-14T02:20:12.274Z,16.62
2022-08-14T02:22:47.354Z,16.58
2022-08-14T02:25:17.765Z,16.53
2022-08-14T02:28:25.729Z,16.54
2022-08-14T02:30:34.825Z,16.52
2022-08-14T02:33:07.420Z,16.47
2022-08-14T02:35:40.723Z,16.49
2022-08-14T02:38:11.565Z,16.50
2022-08-14T02:40:41.402Z,16.46
2022-08-14T02:43:13.827Z,16.33
2022-08-14T02:45:45.143Z,16.37
2022-08-14T02:49:04.109Z,16.32
2022-08-14T02:51:30.972Z,16.26
2022-08-14T02:54:01.558Z,16.28
2022-08-14T02:57:13.507Z,16.28
2022-08-14T02:59:19.351Z,16.30
2022-08-14T03:01:50.398Z,16.29
2022-08-14T03:04:23.416Z,16.27
2022-08-14T03:06:57.318Z,16.25
2022-08-14T03:10:26.629Z,16.28
2022-08-14T03:12:57.290Z,16.31
2022-08-14T03:15:25.684Z,16.32
2022-08-14T03:17:57.690Z,16.22
2022-08-14T03:20:28.758Z,16.21
2022-08-14T03:23:03.006Z,16.17
2022-08-14T03:25:33.418Z,16.06
2022-08-14T03:28:05.356Z,16.07
2022-08-14T03:30:39.738Z,16.05
2022-08-14T03:33:11.075Z,16.02
2022-08-14T03:35:59.848Z,15.96
2022-08-14T03:39:12.749Z,15.92
2022-08-14T03:41:21.315Z,15.88
2022-08-14T03:43:57.770Z,15.85
2022-08-14T03:46:52.762Z,15.84
2022-08-14T03:49:24.315Z,15.80
2022-08-14T03:52:00.794Z,15.74
2022-08-14T03:54:30.512Z,15.72
2022-08-14T03:57:02.693Z,15.70
2022-08-14T03:59:33.153Z,15.69
2022-08-14T04:02:04.714Z,15.67
2022-08-14T04:04:53.365Z,15.65
2022-08-14T04:07:22.494Z,15.62
2022-08-14T04:09:50.627Z,15.57
2022-08-14T04:12:26.478Z,15.57
2022-08-14T04:14:56.451Z,15.56
2022-08-14T04:17:24.425Z,15.56
2022-08-14T04:19:54.116Z,15.55
2022-08-14T04:22:22.217Z,15.51
2022-08-14T04:24:50.516Z,15.48
2022-08-14T04:27:19.060Z,15.49
2022-08-14T04:29:47.122Z,15.45
2022-08-14T04:33:02.346Z,15.44
2022-08-14T04:35:07.537Z,15.37
2022-08-14T04:37:56.002Z,15.40
2022-08-14T04:40:42.159Z,15.41
2022-08-14T04:43:38.463Z,15.36
2022-08-14T04:46:10.621Z,15.36
2022-08-14T04:49:00.423Z,15.40
2022-08-14T04:51:30.100Z,15.43
2022-08-14T04:54:05.835Z,15.43
2022-08-14T04:56:34.786Z,15.45
2022-08-14T04:59:09.397Z,15.50
2022-08-14T05:01:39.961Z,15.51
2022-08-14T05:04:16.245Z,15.56
2022-08-14T05:06:44.556Z,15.60
2022-08-14T05:09:14.319Z,15.60
2022-08-14T05:11:44.245Z,15.64
2022-08-14T05:14:33.736Z,15.68
2022-08-14T05:17:02.026Z,15.72
2022-08-14T05:19:32.457Z,15.76
2022-08-14T05:22:17.330Z,15.77
2022-08-14T05:24:50.491Z,15.79
2022-08-14T05:27:22.969Z,15.80
2022-08-14T05:29:55.061Z,15.82
2022-08-14T05:32:27.667Z,15.87
2022-08-14T05:34:59.117Z,15.90
2022-08-14T05:37:28.468Z,15.92
2022-08-14T05:40:00.555Z,15.93
2022-08-14T05:42:32.188Z,15.98
2022-08-14T05:45:04.326Z,16.02
2022-08-14T05:47:39.023Z,16.05
2022-08-14T05:50:17.243Z,16.10
2022-08-14T05:52:47.424Z,16.13
2022-08-14T05:55:15.615Z,16.18
2022-08-14T05:57:49.686Z,16.24
2022-08-14T06:00:25.015Z,16.26
2022-08-14T06:02:58.369Z,16.33
2022-08-14T06:05:30.166Z,16.38
2022-08-14T06:07:59.197Z,16.39
2022-08-14T06:10:28.682Z,16.46
2022-08-14T06:12:58.235Z,16.49
2022-08-14T06:15:29.951Z,16.55
2022-08-14T06:18:00.349Z,16.62
2022-08-14T06:20:30.539Z,16.67
2022-08-14T06:22:59.142Z,16.71
2022-08-14T06:25:27.957Z,16.75
2022-08-14T06:27:55.987Z,16.84
2022-08-14T06:30:41.905Z,16.91
2022-08-14T06:33:16.155Z,16.99
2022-08-14T06:35:48.470Z,17.06
2022-08-14T06:38:18.503Z,17.11
2022-08-14T06:40:47.233Z,17.19
2022-08-14T06:43:16.970Z,17.24
2022-08-14T06:45:50.114Z,17.31
2022-08-14T06:48:23.725Z,17.30
2022-08-14T06:50:54.674Z,17.41
2022-08-14T06:53:27.640Z,17.47
2022-08-14T06:56:00.870Z,17.52
2022-08-14T06:58:31.883Z,17.62
2022-08-14T07:01:25.030Z,17.64
2022-08-14T07:04:25.806Z,17.79
2022-08-14T07:06:58.959Z,17.92
2022-08-14T07:09:43.487Z,18.02
2022-08-14T07:12:54.223Z,17.99
2022-08-14T07:15:01.839Z,18.14
2022-08-14T07:17:31.917Z,18.19
2022-08-14T07:20:02.253Z,18.21
2022-08-14T07:22:33.067Z,18.28
2022-08-14T07:25:19.902Z,18.42
2022-08-14T07:27:48.203Z,18.47
2022-08-14T07:30:34.344Z,18.49
2022-08-14T07:33:03.654Z,18.61
2022-08-14T07:35:42.951Z,18.67
2022-08-14T07:38:23.326Z,18.79
2022-08-14T07:40:53.312Z,18.87
2022-08-14T07:43:21.746Z,18.96
2022-08-14T07:45:51.325Z,19.08
2022-08-14T07:48:24.868Z,19.14
2022-08-14T07:50:59.462Z,19.16
2022-08-14T07:53:34.067Z,19.28
2022-08-14T07:56:21.629Z,19.37
2022-08-14T07:58:53.429Z,19.50
2022-08-14T08:01:26.747Z,19.55
2022-08-14T08:04:00.298Z,19.64
2022-08-14T08:06:29.986Z,19.74
2022-08-14T08:09:02.931Z,19.77
2022-08-14T08:11:34.819Z,19.81
2022-08-14T08:14:10.665Z,19.95
2022-08-14T08:16:46.482Z,20.10
2022-08-14T08:19:18.917Z,20.13
2022-08-14T08:21:47.649Z,20.21
2022-08-14T08:24:20.034Z,20.25
2022-08-14T08:26:50.327Z,20.32
2022-08-14T08:29:28.543Z,20.43
2022-08-14T08:32:01.582Z,20.52
2022-08-14T08:34:45.980Z,20.70
2022-08-14T08:37:15.219Z,20.73
2022-08-14T08:40:01.884Z,20.83
2022-08-14T08:42:52.077Z,20.89
2022-08-14T08:45:22.575Z,20.95
2022-08-14T08:47:52.398Z,21.11
2022-08-14T08:50:31.655Z,21.28
2022-08-14T08:53:02.039Z,21.41
2022-08-14T08:55:34.192Z,21.56
2022-08-14T08:58:05.267Z,21.65
2022-08-14T09:00:36.137Z,21.67
2022-08-14T09:03:10.145Z,21.72
2022-08-14T09:05:40.686Z,21.82
2022-08-14T09:08:30.834Z,21.91
2022-08-14T09:11:19.818Z,21.98
2022-08-14T09:13:51.380Z,22.10
2022-08-14T09:16:22.036Z,22.16
2022-08-14T09:18:53.175Z,22.31
2022-08-14T09:21:24.047Z,22.39
2022-08-14T09:24:28.705Z,22.41
2022-08-14T09:26:49.184Z,22.54
2022-08-14T09:29:19.820Z,22.64
2022-08-14T09:31:55.181Z,22.75
2022-08-14T09:34:36.801Z,22.88
2022-08-14T09:37:20.189Z,22.98
2022-08-14T09:39:57.493Z,23.08
2022-08-14T09:42:36.848Z,23.18
2022-08-14T09:45:18.920Z,23.27
2022-08-14T09:47:51.818Z,23.40
2022-08-14T09:50:26.190Z,23.50
2022-08-14T09:52:58.226Z,23.63
2022-08-14T09:55:28.262Z,23.73
2022-08-14T09:58:15.107Z,23.80
2022-08-14T10:00:49.121Z,23.90
2022-08-14T10:03:30.258Z,23.95
2022-08-14T10:06:09.915Z,24.09
2022-08-14T10:08:50.928Z,24.18
2022-08-14T10:11:23.614Z,24.17
2022-08-14T10:13:55.896Z,24.30
2022-08-14T10:16:27.227Z,24.36
2022-08-14T10:19:09.613Z,24.45
2022-08-14T10:23:11.298Z,24.54
2022-08-14T10:24:36.180Z,24.60
2022-08-14T10:27:05.553Z,24.73
2022-08-14T10:29:37.196Z,24.75
2022-08-14T10:32:17.614Z,24.78
2022-08-14T10:34:52.565Z,24.91
2022-08-14T10:37:23.653Z,24.98
2022-08-14T10:40:05.167Z,25.02
2022-08-14T10:42:39.502Z,25.07
2022-08-14T10:45:21.711Z,25.10
2022-08-14T10:48:07.682Z,25.25
2022-08-14T10:50:41.650Z,25.33
2022-08-14T10:53:10.643Z,25.23
2022-08-14T10:55:45.771Z,25.35
2022-08-14T10:58:15.022Z,25.41
2022-08-14T11:00:57.114Z,25.48
2022-08-14T11:03:26.783Z,25.47
2022-08-14T11:06:15.293Z,25.37
2022-08-14T11:08:45.667Z,25.45
2022-08-14T11:11:14.001Z,25.54
2022-08-14T11:13:46.314Z,25.62
2022-08-14T11:16:16.563Z,25.66
2022-08-14T11:18:46.482Z,25.81
2022-08-14T11:21:23.229Z,25.83
2022-08-14T11:23:53.785Z,25.92
2022-08-14T11:26:28.003Z,25.95
2022-08-14T11:28:59.849Z,26.01
2022-08-14T11:31:35.608Z,25.97
2022-08-14T11:34:29.705Z,25.99
2022-08-14T11:37:04.466Z,26.07
2022-08-14T11:39:45.386Z,26.05
2022-08-14T11:42:57.191Z,26.16
2022-08-14T11:45:17.231Z,26.35
2022-08-14T11:48:13.215Z,26.50
2022-08-14T11:50:38.179Z,26.53
2022-08-14T11:53:07.195Z,26.50
2022-08-14T11:55:39.123Z,26.51
2022-08-14T11:58:10.500Z,26.49
2022-08-14T12:00:47.872Z,26.54
2022-08-14T12:03:22.752Z,26.71
2022-08-14T12:06:28.029Z,26.77
2022-08-14T12:09:00.232Z,26.75
2022-08-14T12:11:43.146Z,26.73
2022-08-14T12:14:13.305Z,26.74
2022-08-14T12:17:02.435Z,26.85
2022-08-14T12:19:33.446Z,26.92
2022-08-14T12:22:03.549Z,27.08
2022-08-14T12:24:36.657Z,27.21
2022-08-14T12:27:07.924Z,27.17
2022-08-14T12:29:37.621Z,27.17
2022-08-14T12:32:09.108Z,27.12
2022-08-14T12:34:45.141Z,27.27
2022-08-14T12:37:13.311Z,27.38
2022-08-14T12:39:41.362Z,27.45
2022-08-14T12:42:11.893Z,27.47
2022-08-14T12:44:59.905Z,27.57
2022-08-14T12:47:35.615Z,27.64
2022-08-14T12:50:05.519Z,27.74
2022-08-14T12:52:45.383Z,27.70
2022-08-14T12:55:32.563Z,27.70
2022-08-14T12:58:35.053Z,27.82
2022-08-14T13:01:16.989Z,27.74
2022-08-14T13:03:51.942Z,27.73
2022-08-14T13:06:24.971Z,27.77
2022-08-14T13:08:53.834Z,27.87
2022-08-14T13:11:31.265Z,27.89
2022-08-14T13:14:00.735Z,27.88
2022-08-14T13:16:33.602Z,27.98
2022-08-14T13:19:10.956Z,28.07
2022-08-14T13:22:05.367Z,28.17
2022-08-14T13:24:29.519Z,28.10
2022-08-14T13:27:04.352Z,28.19
2022-08-14T13:29:37.643Z,28.21
2022-08-14T13:32:09.315Z,28.23
2022-08-14T13:34:38.299Z,28.36
2022-08-14T13:37:07.864Z,28.53
2022-08-14T13:39:36.103Z,28.55
2022-08-14T13:42:08.761Z,28.57
2022-08-14T13:44:42.773Z,28.57
2022-08-14T13:47:12.140Z,28.70
2022-08-14T13:49:57.040Z,28.76
2022-08-14T13:52:52.254Z,28.81
2022-08-14T13:55:19.751Z,28.85
2022-08-14T13:57:49.973Z,28.90
2022-08-14T14:00:35.706Z,29.25
2022-08-14T14:03:20.726Z,29.40
2022-08-14T14:05:54.261Z,29.40
2022-08-14T14:08:45.712Z,29.10
2022-08-14T14:11:16.082Z,29.34
2022-08-14T14:13:46.322Z,29.34
2022-08-14T14:16:26.610Z,29.49
2022-08-14T14:19:09.187Z,29.52
2022-08-14T14:21:40.977Z,29.57
2022-08-14T14:24:14.929Z,29.77
2022-08-14T14:26:48.010Z,29.89
2022-08-14T14:29:23.954Z,30.01
2022-08-14T14:31:55.402Z,30.15
2022-08-14T14:34:30.123Z,30.08
2022-08-14T14:37:04.690Z,30.16
2022-08-14T14:39:38.132Z,30.24
2022-08-14T14:42:32.340Z,30.21
2022-08-14T14:45:05.663Z,30.38
2022-08-14T14:47:34.494Z,30.66
2022-08-14T14:50:03.727Z,30.71
2022-08-14T14:52:32.460Z,30.69
2022-08-14T14:55:08.138Z,30.81
2022-08-14T14:57:36.757Z,30.90
2022-08-14T15:00:08.846Z,31.19
2022-08-14T15:02:43.006Z,31.16
2022-08-14T15:05:13.193Z,31.24
2022-08-14T15:07:42.184Z,31.37
2022-08-14T15:10:27.055Z,31.57
2022-08-14T15:13:03.444Z,31.72
2022-08-14T15:15:33.057Z,31.75
2022-08-14T15:18:01.588Z,32.02
2022-08-14T15:20:31.227Z,32.04
2022-08-14T15:23:00.795Z,32.13
2022-08-14T15:25:31.837Z,31.85
2022-08-14T15:28:00.889Z,32.03
2022-08-14T15:30:32.769Z,32.01
2022-08-14T15:33:01.155Z,32.04
2022-08-14T15:35:34.219Z,32.21
2022-08-14T15:38:07.829Z,32.36
2022-08-14T15:40:40.938Z,32.50
2022-08-14T15:43:10.862Z,32.46
2022-08-14T15:45:42.173Z,32.72
2022-08-14T15:48:14.025Z,32.87
2022-08-14T15:50:51.832Z,32.73
2022-08-14T15:53:22.448Z,32.83
2022-08-14T15:55:53.048Z,32.98
2022-08-14T15:58:21.812Z,32.99
2022-08-14T16:01:07.846Z,33.12
2022-08-14T16:03:40.865Z,33.07
2022-08-14T16:06:17.663Z,32.75
2022-08-14T16:08:50.036Z,32.74
2022-08-14T16:11:24.092Z,32.88
2022-08-14T16:13:52.730Z,32.82
2022-08-14T16:16:47.138Z,32.74
2022-08-14T16:19:19.600Z,32.23
2022-08-14T16:22:02.752Z,31.92
2022-08-14T16:25:02.765Z,31.77
2022-08-14T16:27:38.951Z,31.66
2022-08-14T16:30:25.140Z,31.70
2022-08-14T16:32:57.313Z,31.55
2022-08-14T16:35:42.765Z,31.43
2022-08-14T16:38:22.291Z,31.39
2022-08-14T16:41:21.989Z,31.22
2022-08-14T16:43:59.166Z,31.11
2022-08-14T16:46:34.611Z,31.05
2022-08-14T16:49:05.379Z,31.08
2022-08-14T16:51:38.484Z,30.73
2022-08-14T16:54:20.644Z,30.54
2022-08-14T16:57:13.362Z,30.47
2022-08-14T16:59:52.468Z,30.38
2022-08-14T17:02:35.310Z,30.37
2022-08-14T17:05:21.493Z,30.32
2022-08-14T17:08:32.532Z,30.24
2022-08-14T17:11:10.880Z,30.15
2022-08-14T17:13:59.738Z,30.14
2022-08-14T17:16:35.546Z,30.06
2022-08-14T17:19:05.532Z,29.92
2022-08-14T17:21:38.059Z,29.89
2022-08-14T17:24:57.895Z,29.74
2022-08-14T17:26:59.864Z,29.75
2022-08-14T17:29:31.305Z,29.74
2022-08-14T17:32:03.479Z,29.70
2022-08-14T17:34:46.437Z,29.56
2022-08-14T17:37:25.664Z,29.49
2022-08-14T17:40:13.795Z,29.39
2022-08-14T17:42:53.649Z,29.35
2022-08-14T17:45:26.803Z,29.08
2022-08-14T17:47:59.550Z,28.96
2022-08-14T17:51:00.121Z,28.81
2022-08-14T17:53:30.382Z,28.62
2022-08-14T17:56:01.475Z,28.53
2022-08-14T17:58:41.663Z,28.42
2022-08-14T18:01:14.181Z,28.27
2022-08-14T18:03:53.235Z,28.18
2022-08-14T18:06:38.453Z,28.11
2022-08-14T18:09:26.061Z,27.97
2022-08-14T18:11:57.028Z,27.83
2022-08-14T18:14:32.292Z,27.69
2022-08-14T18:17:02.407Z,27.68
2022-08-14T18:19:35.182Z,27.65
2022-08-14T18:22:05.786Z,27.55
2022-08-14T18:24:54.128Z,27.54
2022-08-14T18:27:25.228Z,27.46
2022-08-14T18:29:58.646Z,27.43
2022-08-14T18:32:54.891Z,27.37
2022-08-14T18:35:45.925Z,27.24
2022-08-14T18:38:26.351Z,27.20
2022-08-14T18:41:36.217Z,27.04
2022-08-14T18:44:10.521Z,27.03
2022-08-14T18:47:20.481Z,27.00
2022-08-14T18:50:03.803Z,26.96
2022-08-14T18:52:54.170Z,26.88
2022-08-14T18:55:54.112Z,26.79
2022-08-14T18:58:31.106Z,26.66
2022-08-14T19:01:01.261Z,26.59
2022-08-14T19:03:53.399Z,26.50
2022-08-14T19:06:38.315Z,26.43
2022-08-14T19:09:07.809Z,26.37
2022-08-14T19:11:50.143Z,26.31
2022-08-14T19:14:47.599Z,26.25
2022-08-14T19:18:10.776Z,26.18
2022-08-14T19:20:47.580Z,26.16
2022-08-14T19:23:18.301Z,26.14
2022-08-14T19:25:55.627Z,26.09
2022-08-14T19:28:31.022Z,26.05
2022-08-14T19:31:41.954Z,26.02
2022-08-14T19:34:30.075Z,25.95
2022-08-14T19:37:10.131Z,25.90
2022-08-14T19:39:49.260Z,25.80
2022-08-14T19:42:28.328Z,25.73
2022-08-14T19:44:58.899Z,25.69
2022-08-14T19:47:38.557Z,25.62
2022-08-14T19:50:39.081Z,25.58
2022-08-14T19:53:16.569Z,25.51
2022-08-14T19:55:59.027Z,25.46
2022-08-14T19:58:54.695Z,25.41
2022-08-14T20:01:27.247Z,25.36
2022-08-14T20:04:46.938Z,25.29
2022-08-14T20:07:04.434Z,25.24
2022-08-14T20:11:05.638Z,25.20
2022-08-14T20:12:36.722Z,25.16
2022-08-14T20:15:27.976Z,25.12
2022-08-14T20:18:38.997Z,25.07
2022-08-14T20:21:05.462Z,25.01
2022-08-14T20:23:38.454Z,24.97
2022-08-14T20:26:30.512Z,24.92
2022-08-14T20:29:05.307Z,24.88
2022-08-14T20:31:37.769Z,24.83
2022-08-14T20:34:07.920Z,24.80
2022-08-14T20:36:47.434Z,24.73
2022-08-14T20:39:16.814Z,24.70
2022-08-14T20:41:49.049Z,24.65
2022-08-14T20:44:40.726Z,24.60
2022-08-14T20:47:15.085Z,24.56
2022-08-14T20:49:43.076Z,24.52
2022-08-14T20:52:19.055Z,24.50
2022-08-14T20:54:51.854Z,24.46
2022-08-14T20:57:20.463Z,24.40
2022-08-14T20:59:53.071Z,24.36
2022-08-14T21:02:46.252Z,24.32
2022-08-14T21:05:22.412Z,24.26
2022-08-14T21:08:10.039Z,24.23
2022-08-14T21:10:50.605Z,24.20
2022-08-14T21:13:27.319Z,24.16
2022-08-14T21:16:34.711Z,24.12
2022-08-14T21:19:00.016Z,24.04
2022-08-14T21:21:41.743Z,24.00
2022-08-14T21:24:39.867Z,23.93
2022-08-14T21:27:12.479Z,23.87
2022-08-14T21:29:54.002Z,23.78
2022-08-14T21:32:35.005Z,23.73
2022-08-14T21:35:08.283Z,23.66
2022-08-14T21:37:45.114Z,23.51
2022-08-14T21:40:40.981Z,23.47
2022-08-14T21:43:03.355Z,23.41
2022-08-14T21:45:35.256Z,23.35
2022-08-14T21:48:10.858Z,23.31
2022-08-14T21:51:01.170Z,23.28
2022-08-14T21:53:34.087Z,23.23
2022-08-14T21:56:03.713Z,23.21
2022-08-14T21:58:53.150Z,23.17
2022-08-14T22:01:20.407Z,23.12
2022-08-14T22:03:55.132Z,23.07
2022-08-14T22:06:28.809Z,23.02
2022-08-14T22:08:58.145Z,22.97
2022-08-14T22:11:27.293Z,22.91
2022-08-14T22:14:02.374Z,22.87
2022-08-14T22:17:01.621Z,22.82
2022-08-14T22:19:47.297Z,22.75
2022-08-14T22:22:26.137Z,22.72
2022-08-14T22:24:59.986Z,22.68
2022-08-14T22:27:32.379Z,22.65
2022-08-14T22:30:02.266Z,22.61
2022-08-14T22:32:56.824Z,22.55
2022-08-14T22:35:23.506Z,22.50
2022-08-14T22:38:35.986Z,22.45
2022-08-14T22:41:07.528Z,22.38
2022-08-14T22:43:35.122Z,22.33
2022-08-14T22:46:06.245Z,22.27
2022-08-14T22:48:44.497Z,22.21
2022-08-14T22:51:13.478Z,22.14
2022-08-14T22:53:43.947Z,22.03
2022-08-14T22:56:20.606Z,21.98
2022-08-14T22:58:49.948Z,21.94
2022-08-14T23:01:25.465Z,21.87
2022-08-14T23:04:35.033Z,21.80
2022-08-14T23:07:04.673Z,21.71
2022-08-14T23:09:38.087Z,21.63
2022-08-14T23:12:27.682Z,21.64
2022-08-14T23:14:56.355Z,21.59
2022-08-14T23:17:24.349Z,21.22
2022-08-14T23:19:56.196Z,21.07
2022-08-14T23:22:26.369Z,20.96
2022-08-14T23:24:57.784Z,21.01
2022-08-14T23:28:02.724Z,21.03
2022-08-14T23:30:31.920Z,21.08
2022-08-14T23:33:03.681Z,21.10
2022-08-14T23:35:33.281Z,21.11
2022-08-14T23:38:02.887Z,21.14
2022-08-14T23:40:32.322Z,21.15
2022-08-14T23:43:07.090Z,21.13
2022-08-14T23:45:39.311Z,21.07
2022-08-14T23:48:09.986Z,21.03
2022-08-14T23:50:41.606Z,20.99
2022-08-14T23:53:28.604Z,20.99
2022-08-14T23:56:09.824Z,20.95
2022-08-14T23:58:40.294Z,20.96
